Time;durP1;ratioP1;P1;durP2;ratioP2;P2;SDS_P1;SDS_P2;PMS_P1;PMS_P2;Temp;Humidity;BMP_temperature;BMP_pressure;BME280_temperature;BME280_humidity;BME280_pressure;Samples;Min_cycle;Max_cycle;Signal;HPM_P1;HPM_P2
2021/08/16 00:00:16;;;;;;;2.37;2.07;;;20.60;99.90;;;;;;4995230;28;20980;-68
2021/08/16 00:02:44;;;;;;;2.53;2.20;;;20.60;99.90;;;;;;4997733;28;20966;-70
2021/08/16 00:05:13;;;;;;;2.80;1.70;;;20.50;99.90;;;;;;4989542;28;20482;-70
2021/08/16 00:07:42;;;;;;;2.07;1.60;;;20.50;99.90;;;;;;4996952;28;20615;-69
2021/08/16 00:10:11;;;;;;;2.00;1.73;;;20.50;99.90;;;;;;4998109;28;20501;-71
2021/08/16 00:12:38;;;;;;;3.37;2.20;;;20.60;99.90;;;;;;4995024;28;20473;-70
2021/08/16 00:15:06;;;;;;;2.50;1.60;;;20.50;99.90;;;;;;4995805;28;20459;-73
2021/08/16 00:17:33;;;;;;;4.80;1.80;;;20.60;99.90;;;;;;5000629;28;20560;-71
2021/08/16 00:20:00;;;;;;;4.60;2.13;;;20.60;99.90;;;;;;4996044;28;20475;-68
2021/08/16 00:22:27;;;;;;;4.13;2.13;;;20.70;99.90;;;;;;5001979;28;20478;-70
2021/08/16 00:24:56;;;;;;;3.73;2.47;;;20.70;99.90;;;;;;4996124;28;20521;-70
2021/08/16 00:27:23;;;;;;;4.80;2.40;;;20.60;99.90;;;;;;4995098;28;20895;-71
2021/08/16 00:29:50;;;;;;;5.80;3.20;;;20.40;99.90;;;;;;4997615;28;20507;-70
2021/08/16 00:32:17;;;;;;;3.37;2.60;;;20.30;99.90;;;;;;4998334;28;22441;-72
2021/08/16 00:34:44;;;;;;;3.13;2.70;;;20.30;99.90;;;;;;4994495;28;20478;-74
2021/08/16 00:37:11;;;;;;;15.90;3.67;;;20.30;99.90;;;;;;4995219;28;21037;-70
2021/08/16 00:39:38;;;;;;;5.07;2.53;;;20.20;99.90;;;;;;4997882;28;20505;-68
2021/08/16 00:42:09;;;;;;;5.80;2.80;;;20.20;99.90;;;;;;4997908;28;20556;-70
2021/08/16 00:44:36;;;;;;;3.13;2.17;;;20.30;99.90;;;;;;4998607;28;20566;-69
2021/08/16 00:47:03;;;;;;;2.07;1.90;;;20.40;99.90;;;;;;4996344;28;20647;-70
2021/08/16 00:49:30;;;;;;;2.60;1.97;;;20.30;99.90;;;;;;4991333;28;20496;-74
2021/08/16 00:51:57;;;;;;;5.00;2.40;;;20.20;99.90;;;;;;4994484;28;20504;-69
2021/08/16 00:54:24;;;;;;;2.57;1.77;;;20.00;99.90;;;;;;5003664;28;20540;-70
2021/08/16 00:56:52;;;;;;;2.30;1.50;;;19.90;99.90;;;;;;4998350;28;20556;-70
2021/08/16 00:59:21;;;;;;;5.70;2.57;;;19.80;99.90;;;;;;5007999;28;20490;-70
2021/08/16 01:01:48;;;;;;;5.00;1.93;;;19.60;99.90;;;;;;4995423;28;20455;-68
2021/08/16 01:04:16;;;;;;;2.67;2.20;;;19.50;99.90;;;;;;4996826;28;20579;-72
2021/08/16 01:06:43;;;;;;;2.43;1.53;;;19.60;99.90;;;;;;4994893;28;20454;-70
2021/08/16 01:09:10;;;;;;;4.50;1.77;;;19.60;99.90;;;;;;4997656;28;20525;-71
2021/08/16 01:11:37;;;;;;;3.33;2.27;;;19.60;99.90;;;;;;5001001;28;20528;-70
2021/08/16 01:14:04;;;;;;;2.10;1.90;;;19.40;99.90;;;;;;4995073;28;20557;-72
2021/08/16 01:16:32;;;;;;;4.30;1.93;;;19.60;99.90;;;;;;4990441;28;20472;-69
2021/08/16 01:19:00;;;;;;;3.83;2.20;;;19.70;99.90;;;;;;5000097;28;20542;-70
2021/08/16 01:21:27;;;;;;;2.07;1.67;;;19.70;99.90;;;;;;4998984;28;21029;-69
2021/08/16 01:23:53;;;;;;;2.23;1.83;;;19.70;99.90;;;;;;4997069;28;20552;-71
2021/08/16 01:26:22;;;;;;;4.40;2.37;;;19.50;99.90;;;;;;4996022;28;20489;-73
2021/08/16 01:28:50;;;;;;;10.20;1.90;;;19.30;99.90;;;;;;4996277;28;20457;-70
2021/08/16 01:31:18;;;;;;;3.40;1.90;;;19.10;99.90;;;;;;4997712;28;20501;-71
2021/08/16 01:33:45;;;;;;;4.40;1.50;;;19.00;99.90;;;;;;4998498;28;20460;-72
2021/08/16 01:36:12;;;;;;;3.83;1.77;;;19.00;99.90;;;;;;4995535;28;20512;-71
2021/08/16 01:38:42;;;;;;;3.77;1.47;;;19.10;99.90;;;;;;5000721;28;20830;-71
2021/08/16 01:41:09;;;;;;;2.30;1.90;;;19.10;99.90;;;;;;5004551;28;20809;-70
2021/08/16 01:43:36;;;;;;;2.10;1.60;;;19.10;99.90;;;;;;5000286;28;20497;-72
2021/08/16 01:46:05;;;;;;;3.23;2.10;;;19.00;99.90;;;;;;4996116;28;20526;-74
2021/08/16 01:48:32;;;;;;;2.70;1.60;;;19.00;99.90;;;;;;4989144;28;20588;-71
2021/08/16 01:50:59;;;;;;;4.00;2.90;;;18.70;99.90;;;;;;4993850;28;20477;-70
2021/08/16 01:53:27;;;;;;;5.83;2.00;;;18.50;99.90;;;;;;4997325;28;20623;-71
2021/08/16 01:55:54;;;;;;;2.37;1.53;;;18.40;99.90;;;;;;4994306;28;20954;-69
2021/08/16 01:58:21;;;;;;;3.50;2.33;;;18.30;99.90;;;;;;5003104;28;20453;-70
2021/08/16 02:00:48;;;;;;;6.87;1.80;;;18.20;99.90;;;;;;4996946;28;20544;-70
2021/08/16 02:03:16;;;;;;;4.63;2.80;;;18.20;99.90;;;;;;4997193;28;21002;-70
2021/08/16 02:05:43;;;;;;;5.73;2.30;;;18.20;99.90;;;;;;4989223;28;20570;-69
2021/08/16 02:08:10;;;;;;;6.20;2.20;;;18.30;99.90;;;;;;4992944;28;20552;-70
2021/08/16 02:10:37;;;;;;;5.43;2.27;;;18.30;99.90;;;;;;4995442;28;20560;-70
2021/08/16 02:13:04;;;;;;;4.60;1.60;;;18.40;99.90;;;;;;5006297;28;20524;-70
2021/08/16 02:15:31;;;;;;;2.10;1.63;;;18.20;99.90;;;;;;4992296;28;20540;-69
2021/08/16 02:17:58;;;;;;;5.60;1.60;;;18.10;99.90;;;;;;4996706;28;20493;-70
2021/08/16 02:20:26;;;;;;;3.50;1.90;;;18.30;99.90;;;;;;4992414;28;20560;-73
2021/08/16 02:22:53;;;;;;;5.63;1.63;;;18.40;99.90;;;;;;4995763;28;20891;-71
2021/08/16 02:25:20;;;;;;;2.23;1.87;;;18.50;99.90;;;;;;4998487;28;20863;-68
2021/08/16 02:27:49;;;;;;;5.40;2.90;;;18.40;99.90;;;;;;4988689;28;20457;-70
2021/08/16 02:30:17;;;;;;;3.80;1.80;;;18.40;99.90;;;;;;4992947;28;20473;-71
2021/08/16 02:32:44;;;;;;;5.63;1.97;;;18.40;99.90;;;;;;5000876;28;20484;-71
2021/08/16 02:35:12;;;;;;;3.30;2.00;;;18.50;99.90;;;;;;4992992;28;20627;-70
2021/08/16 02:37:40;;;;;;;15.00;2.53;;;18.40;99.90;;;;;;4995732;28;20509;-70
2021/08/16 02:40:09;;;;;;;6.40;2.90;;;18.40;99.90;;;;;;4998255;28;20500;-69
2021/08/16 02:42:36;;;;;;;5.90;1.83;;;18.40;99.90;;;;;;4994187;28;20548;-70
2021/08/16 02:45:03;;;;;;;4.10;2.00;;;18.30;99.90;;;;;;4997820;28;21056;-67
2021/08/16 02:47:30;;;;;;;6.77;2.60;;;18.30;99.90;;;;;;4992377;28;20544;-70
2021/08/16 02:49:57;;;;;;;6.03;2.80;;;18.40;99.90;;;;;;4996211;28;20504;-70
2021/08/16 02:52:24;;;;;;;7.97;4.20;;;18.50;99.90;;;;;;4992563;28;20564;-70
2021/08/16 02:54:52;;;;;;;5.97;2.53;;;18.40;99.90;;;;;;5003051;28;20519;-69
2021/08/16 02:57:20;;;;;;;2.70;2.00;;;18.40;99.90;;;;;;4986387;28;20467;-73
2021/08/16 02:59:47;;;;;;;5.40;2.90;;;18.20;99.90;;;;;;4998431;28;20652;-70
2021/08/16 03:02:14;;;;;;;7.07;3.80;;;18.20;99.90;;;;;;4991589;28;20552;-74
2021/08/16 03:04:41;;;;;;;15.40;3.50;;;18.30;99.90;;;;;;4992862;28;20568;-69
2021/08/16 03:07:09;;;;;;;4.63;2.60;;;18.30;99.90;;;;;;4999557;28;20564;-70
2021/08/16 03:09:36;;;;;;;5.17;2.90;;;18.20;99.90;;;;;;4989760;28;20489;-69
2021/08/16 03:12:05;;;;;;;6.90;3.53;;;18.30;99.90;;;;;;5000066;28;20489;-67
2021/08/16 03:14:32;;;;;;;7.33;3.10;;;18.40;99.90;;;;;;5001459;28;21025;-68
2021/08/16 03:16:59;;;;;;;7.13;2.73;;;18.40;99.90;;;;;;5004719;28;20553;-68
2021/08/16 03:19:26;;;;;;;3.90;2.33;;;18.40;99.90;;;;;;5001602;28;20553;-73
2021/08/16 03:21:53;;;;;;;4.80;2.73;;;18.30;99.90;;;;;;5001553;28;20962;-70
2021/08/16 03:24:20;;;;;;;4.53;2.40;;;18.30;99.90;;;;;;4995988;28;20524;-70
2021/08/16 03:26:47;;;;;;;3.57;2.47;;;18.40;99.90;;;;;;4997124;28;20453;-68
2021/08/16 03:29:16;;;;;;;2.27;1.90;;;18.30;99.90;;;;;;4998918;28;20453;-68
2021/08/16 03:31:43;;;;;;;5.13;3.37;;;18.20;99.90;;;;;;4994827;28;20529;-70
2021/08/16 03:34:10;;;;;;;5.47;2.30;;;18.20;99.90;;;;;;4993447;28;20464;-69
2021/08/16 03:36:37;;;;;;;9.57;2.37;;;18.10;99.90;;;;;;4999368;28;20540;-69
2021/08/16 03:39:05;;;;;;;7.20;2.30;;;18.00;99.90;;;;;;4993784;28;20465;-72
2021/08/16 03:41:32;;;;;;;5.50;3.30;;;18.10;99.90;;;;;;4993123;28;20881;-77
2021/08/16 03:43:59;;;;;;;3.27;2.40;;;18.20;99.90;;;;;;4992938;28;22299;-69
2021/08/16 03:46:28;;;;;;;10.47;3.63;;;18.20;99.90;;;;;;4997243;28;20485;-70
2021/08/16 03:48:55;;;;;;;5.47;2.20;;;18.10;99.90;;;;;;5005038;28;20829;-71
2021/08/16 03:51:22;;;;;;;6.60;3.20;;;18.20;99.90;;;;;;5002840;28;20576;-73
2021/08/16 03:53:52;;;;;;;6.30;3.20;;;18.10;99.90;;;;;;4995886;28;20947;-73
2021/08/16 03:56:19;;;;;;;5.80;3.30;;;18.00;99.90;;;;;;4995583;28;20881;-71
2021/08/16 03:58:46;;;;;;;5.20;2.33;;;18.00;99.90;;;;;;5004565;28;20461;-70
2021/08/16 04:01:13;;;;;;;8.50;3.67;;;18.10;99.90;;;;;;4998739;28;20571;-69
2021/08/16 04:03:43;;;;;;;8.03;4.13;;;18.10;99.90;;;;;;4996101;28;20473;-70
2021/08/16 04:06:10;;;;;;;8.70;2.90;;;18.10;99.90;;;;;;4989763;28;20651;-70
2021/08/16 04:08:39;;;;;;;6.57;3.00;;;18.10;99.90;;;;;;4998401;28;20549;-76
2021/08/16 04:11:06;;;;;;;5.07;3.67;;;18.10;99.90;;;;;;5006519;28;20489;-71
2021/08/16 04:13:33;;;;;;;7.20;3.17;;;18.20;99.90;;;;;;4995613;28;20461;-72
2021/08/16 04:16:01;;;;;;;13.73;3.10;;;18.30;99.90;;;;;;4996029;28;20446;-70
2021/08/16 04:18:27;;;;;;;13.00;4.07;;;18.10;99.90;;;;;;5007143;28;20465;-70
2021/08/16 04:20:56;;;;;;;5.53;3.00;;;18.00;99.90;;;;;;4997190;28;20486;-70
2021/08/16 04:23:23;;;;;;;5.10;3.47;;;17.90;99.90;;;;;;4993690;28;20529;-74
2021/08/16 04:25:50;;;;;;;7.20;2.87;;;17.80;99.90;;;;;;4994593;28;21286;-72
2021/08/16 04:28:17;;;;;;;6.53;2.87;;;17.90;99.90;;;;;;4998375;28;20532;-71
2021/08/16 04:30:45;;;;;;;9.73;4.47;;;17.90;99.90;;;;;;4998529;28;20576;-73
2021/08/16 04:33:12;;;;;;;11.50;3.80;;;17.90;99.90;;;;;;5001733;28;20564;-70
2021/08/16 04:35:40;;;;;;;9.60;3.67;;;17.90;99.90;;;;;;4992379;28;20484;-72
2021/08/16 04:38:08;;;;;;;7.73;3.50;;;17.90;99.90;;;;;;4995846;28;20508;-69
2021/08/16 04:40:35;;;;;;;6.90;3.47;;;17.80;99.90;;;;;;4999056;28;20507;-74
2021/08/16 04:43:02;;;;;;;10.03;4.90;;;17.90;99.90;;;;;;4995392;28;20469;-71
2021/08/16 04:45:29;;;;;;;7.83;3.77;;;18.00;99.90;;;;;;4990491;28;20572;-75
2021/08/16 04:47:56;;;;;;;6.10;3.60;;;17.90;99.90;;;;;;5002267;28;20519;-71
2021/08/16 04:50:23;;;;;;;4.20;3.10;;;17.90;99.90;;;;;;5000070;28;20568;-70
2021/08/16 04:52:50;;;;;;;6.10;3.43;;;17.90;99.90;;;;;;5002631;28;20858;-71
2021/08/16 04:55:18;;;;;;;6.00;3.93;;;17.80;99.90;;;;;;4999212;28;20532;-71
2021/08/16 04:57:45;;;;;;;8.50;4.13;;;17.80;99.90;;;;;;5009842;28;20637;-71
2021/08/16 05:00:14;;;;;;;6.50;4.20;;;17.70;99.90;;;;;;5006014;28;20532;-70
2021/08/16 05:02:42;;;;;;;8.70;4.10;;;17.80;99.90;;;;;;5009335;28;20441;-71
2021/08/16 05:05:10;;;;;;;17.37;4.40;;;17.70;99.90;;;;;;5007331;28;20497;-70
2021/08/16 05:07:37;;;;;;;5.23;3.07;;;17.70;99.90;;;;;;5008322;28;20811;-70
2021/08/16 05:10:07;;;;;;;7.00;4.07;;;17.70;99.90;;;;;;5000050;28;20516;-71
2021/08/16 05:12:36;;;;;;;6.67;4.20;;;17.80;99.90;;;;;;5008482;28;20465;-69
2021/08/16 05:15:03;;;;;;;7.17;4.40;;;17.90;99.90;;;;;;5008082;28;20501;-71
2021/08/16 05:17:32;;;;;;;3.90;3.50;;;17.80;99.90;;;;;;5010545;28;20524;-70
2021/08/16 05:19:59;;;;;;;7.07;3.20;;;17.80;99.90;;;;;;5007924;28;20513;-70
2021/08/16 05:22:26;;;;;;;8.33;4.50;;;17.90;99.90;;;;;;4997673;28;20486;-70
2021/08/16 05:24:53;;;;;;;5.23;3.90;;;18.00;99.90;;;;;;5002215;28;20488;-71
2021/08/16 05:27:20;;;;;;;6.97;3.77;;;17.90;99.90;;;;;;5004261;28;20608;-71
2021/08/16 05:29:49;;;;;;;5.30;3.10;;;17.80;99.90;;;;;;5003027;28;20561;-73
2021/08/16 05:32:16;;;;;;;7.90;3.30;;;17.80;99.90;;;;;;5001694;28;20449;-71
2021/08/16 05:34:44;;;;;;;8.37;3.70;;;17.80;99.90;;;;;;5005812;28;20464;-73
2021/08/16 05:37:11;;;;;;;6.80;3.70;;;17.70;99.90;;;;;;5008525;28;20480;-71
2021/08/16 05:39:38;;;;;;;4.77;3.40;;;17.80;99.90;;;;;;5003347;28;20555;-71
2021/08/16 05:42:05;;;;;;;6.30;4.10;;;17.80;99.90;;;;;;5005029;28;20537;-72
2021/08/16 05:44:33;;;;;;;6.03;3.23;;;17.90;99.90;;;;;;4996080;28;20589;-72
2021/08/16 05:47:02;;;;;;;3.40;2.10;;;17.90;99.90;;;;;;5007255;28;20590;-72
2021/08/16 05:49:29;;;;;;;8.97;4.50;;;17.80;99.90;;;;;;5002746;28;20473;-72
2021/08/16 05:51:57;;;;;;;16.07;4.50;;;17.70;99.90;;;;;;5002542;28;20556;-72
2021/08/16 05:54:24;;;;;;;6.17;4.83;;;17.80;99.90;;;;;;5005387;28;20470;-70
2021/08/16 05:56:51;;;;;;;5.60;4.00;;;17.80;99.90;;;;;;5009807;28;20540;-72
2021/08/16 05:59:18;;;;;;;6.03;2.90;;;17.80;99.90;;;;;;5002819;28;20581;-72
2021/08/16 06:01:45;;;;;;;4.87;3.80;;;17.90;99.90;;;;;;5001107;28;20770;-72
2021/08/16 06:04:13;;;;;;;4.33;3.20;;;17.90;99.90;;;;;;4999206;28;20896;-72
2021/08/16 06:06:40;;;;;;;7.57;4.37;;;18.00;99.90;;;;;;5001536;28;20508;-70
2021/08/16 06:09:07;;;;;;;10.20;4.47;;;17.90;99.90;;;;;;5000320;28;20591;-71
2021/08/16 06:11:34;;;;;;;6.97;3.67;;;17.80;99.90;;;;;;5008766;28;20583;-70
2021/08/16 06:14:01;;;;;;;16.07;3.73;;;17.90;99.90;;;;;;5007958;28;21005;-70
2021/08/16 06:16:28;;;;;;;9.77;4.67;;;18.00;99.90;;;;;;5006691;28;21123;-71
2021/08/16 06:18:55;;;;;;;9.53;3.40;;;18.10;99.90;;;;;;5004791;28;20454;-70
2021/08/16 06:21:23;;;;;;;5.20;4.70;;;18.00;99.90;;;;;;5003996;28;20508;-71
2021/08/16 06:23:50;;;;;;;7.27;4.30;;;18.10;99.90;;;;;;5005057;28;20489;-70
2021/08/16 06:26:18;;;;;;;8.40;4.47;;;18.20;99.90;;;;;;5010696;28;20484;-70
2021/08/16 06:28:44;;;;;;;14.40;5.00;;;18.00;99.90;;;;;;5011720;28;20564;-71
2021/08/16 06:31:11;;;;;;;9.23;4.80;;;18.10;99.90;;;;;;5013526;28;20546;-71
2021/08/16 06:33:40;;;;;;;6.70;4.17;;;18.20;99.90;;;;;;5005965;28;20581;-71
2021/08/16 06:36:07;;;;;;;4.17;3.77;;;18.20;99.90;;;;;;5005700;28;20472;-70
2021/08/16 06:38:35;;;;;;;10.03;5.00;;;18.20;99.90;;;;;;5011703;28;20445;-70
2021/08/16 06:41:03;;;;;;;7.90;4.70;;;18.30;99.90;;;;;;5012251;28;20465;-73
2021/08/16 06:43:32;;;;;;;5.63;4.40;;;18.30;99.90;;;;;;5007695;28;20515;-71
2021/08/16 06:45:59;;;;;;;6.07;3.80;;;18.30;99.90;;;;;;5009798;28;20524;-71
2021/08/16 06:48:26;;;;;;;6.00;4.70;;;18.30;99.90;;;;;;5011376;28;20488;-71
2021/08/16 06:50:53;;;;;;;11.13;5.27;;;18.60;99.90;;;;;;5011610;28;20477;-71
2021/08/16 06:53:20;;;;;;;9.23;4.40;;;18.90;99.90;;;;;;5010510;28;20531;-69
2021/08/16 06:55:50;;;;;;;13.77;5.60;;;18.70;99.90;;;;;;5010059;28;20544;-71
2021/08/16 06:58:17;;;;;;;12.57;5.80;;;18.50;99.90;;;;;;5007124;28;20933;-73
2021/08/16 07:00:44;;;;;;;12.37;5.90;;;18.50;99.90;;;;;;5011000;28;21091;-70
2021/08/16 07:03:11;;;;;;;5.60;4.80;;;18.50;99.90;;;;;;5012069;28;20450;-71
2021/08/16 07:05:42;;;;;;;12.57;6.30;;;18.60;99.90;;;;;;5009638;28;20568;-72
2021/08/16 07:08:09;;;;;;;6.77;4.60;;;18.40;99.90;;;;;;5010356;28;20802;-71
2021/08/16 07:10:36;;;;;;;6.40;4.43;;;18.50;99.90;;;;;;5011182;28;20519;-71
2021/08/16 07:13:04;;;;;;;7.13;5.57;;;18.50;99.90;;;;;;5012153;28;20481;-72
2021/08/16 07:15:32;;;;;;;9.73;4.57;;;18.80;99.90;;;;;;5010864;28;20685;-71
2021/08/16 07:17:59;;;;;;;15.40;6.00;;;19.30;99.90;;;;;;5011816;28;20491;-72
2021/08/16 07:20:27;;;;;;;11.07;4.20;;;19.20;99.90;;;;;;5009367;28;20496;-70
2021/08/16 07:22:54;;;;;;;7.67;4.33;;;19.10;99.90;;;;;;5011718;28;20543;-70
2021/08/16 07:25:21;;;;;;;6.10;4.10;;;19.10;99.90;;;;;;5001088;28;20553;-68
2021/08/16 07:27:47;;;;;;;10.77;5.93;;;19.10;99.90;;;;;;5007214;28;20575;-68
2021/08/16 07:30:16;;;;;;;12.20;5.17;;;19.20;99.90;;;;;;5010254;28;20465;-71
2021/08/16 07:32:43;;;;;;;10.33;7.07;;;19.40;99.90;;;;;;5008461;28;20902;-71
2021/08/16 07:35:11;;;;;;;7.70;4.50;;;19.50;99.90;;;;;;5008874;28;21146;-74
2021/08/16 07:37:38;;;;;;;3.73;1.50;;;19.40;99.90;;;;;;5010124;28;20886;-70
2021/08/16 07:40:06;;;;;;;5.83;3.80;;;19.40;99.90;;;;;;5012661;28;20508;-73
2021/08/16 07:42:33;;;;;;;4.40;4.00;;;19.50;99.90;;;;;;5000351;28;20466;-72
2021/08/16 07:45:00;;;;;;;11.47;4.30;;;19.40;99.90;;;;;;5010286;28;20592;-70
2021/08/16 07:47:28;;;;;;;7.77;4.30;;;19.20;99.90;;;;;;5010167;28;20485;-72
2021/08/16 07:49:55;;;;;;;8.60;4.10;;;19.20;99.90;;;;;;4998252;28;20482;-75
2021/08/16 07:52:22;;;;;;;12.07;4.20;;;19.10;99.90;;;;;;5003558;28;20571;-72
2021/08/16 07:54:49;;;;;;;7.17;4.00;;;19.20;99.90;;;;;;5008685;28;20552;-71
2021/08/16 07:57:16;;;;;;;6.03;3.67;;;19.80;99.90;;;;;;5010475;28;20481;-71
2021/08/16 07:59:43;;;;;;;6.20;4.03;;;20.70;99.90;;;;;;4995011;28;20983;-71
2021/08/16 08:02:10;;;;;;;5.87;3.03;;;21.10;99.90;;;;;;5011270;28;20463;-71
2021/08/16 08:04:38;;;;;;;4.27;2.93;;;21.20;99.90;;;;;;5009279;28;20493;-71
2021/08/16 08:07:05;;;;;;;18.67;4.70;;;20.70;99.90;;;;;;5000173;28;20924;-71
2021/08/16 08:09:32;;;;;;;14.40;4.83;;;20.50;99.90;;;;;;5005996;28;21065;-72
2021/08/16 08:11:59;;;;;;;5.40;3.77;;;20.40;99.90;;;;;;5007518;28;20489;-70
2021/08/16 08:14:26;;;;;;;11.10;5.10;;;20.20;99.90;;;;;;5006315;28;20559;-72
2021/08/16 08:16:53;;;;;;;4.73;3.57;;;20.20;99.90;;;;;;5006701;28;20507;-68
2021/08/16 08:19:20;;;;;;;8.90;3.77;;;20.10;99.90;;;;;;5009318;28;21006;-68
2021/08/16 08:21:49;;;;;;;11.03;4.83;;;20.10;99.90;;;;;;5008068;28;20938;-69
2021/08/16 08:24:16;;;;;;;5.50;3.57;;;20.10;99.90;;;;;;5010135;28;20608;-71
2021/08/16 08:26:43;;;;;;;5.33;3.77;;;20.00;99.90;;;;;;5006947;28;20563;-71
2021/08/16 08:29:09;;;;;;;15.80;4.43;;;20.00;99.90;;;;;;5008730;28;20473;-70
2021/08/16 08:31:38;;;;;;;5.03;4.20;;;20.10;99.90;;;;;;5010671;28;20452;-70
2021/08/16 08:34:05;;;;;;;4.27;3.43;;;20.30;99.90;;;;;;5003057;28;20555;-70
2021/08/16 08:36:32;;;;;;;3.30;3.00;;;20.40;99.90;;;;;;5009340;28;20829;-69
2021/08/16 08:39:00;;;;;;;3.57;3.27;;;20.30;99.90;;;;;;4999796;28;20533;-69
2021/08/16 08:41:30;;;;;;;6.80;3.73;;;20.20;99.90;;;;;;5002110;28;20478;-73
2021/08/16 08:43:58;;;;;;;6.93;3.97;;;20.30;99.90;;;;;;5003046;28;20463;-70
2021/08/16 08:46:26;;;;;;;4.03;2.80;;;20.00;99.90;;;;;;5008789;28;20521;-69
2021/08/16 08:48:53;;;;;;;6.57;4.23;;;19.80;99.90;;;;;;5006289;28;20937;-72
2021/08/16 08:51:21;;;;;;;4.43;3.27;;;19.60;99.90;;;;;;5004806;28;20523;-71
2021/08/16 08:53:48;;;;;;;6.67;4.40;;;19.60;99.90;;;;;;5007018;28;20469;-72
2021/08/16 08:56:17;;;;;;;3.80;3.40;;;19.60;99.90;;;;;;5009552;28;20462;-72
2021/08/16 08:58:44;;;;;;;7.87;3.47;;;19.60;99.90;;;;;;5009025;28;20450;-70
2021/08/16 09:01:11;;;;;;;6.83;3.67;;;19.50;99.90;;;;;;5001763;28;20585;-72
2021/08/16 09:03:48;;;;;;;5.87;4.20;;;19.50;99.90;;;;;;5007561;28;20539;-70
2021/08/16 09:06:16;;;;;;;14.13;2.70;;;19.60;99.90;;;;;;5004416;28;20823;-69
2021/08/16 09:08:44;;;;;;;7.77;3.30;;;19.40;99.90;;;;;;5006032;28;20472;-70
2021/08/16 09:11:12;;;;;;;6.73;3.57;;;19.30;99.90;;;;;;5006938;28;20556;-72
2021/08/16 09:13:55;;;;;;;8.80;3.10;;;19.40;99.90;;;;;;5007378;28;20938;-70
2021/08/16 09:16:22;;;;;;;5.73;4.10;;;19.40;99.90;;;;;;5008781;28;20523;-69
2021/08/16 09:18:50;;;;;;;4.00;2.60;;;19.30;99.90;;;;;;5005808;28;20481;-70
2021/08/16 09:21:26;;;;;;;5.83;3.30;;;19.20;99.90;;;;;;5005764;28;20556;-69
2021/08/16 09:23:56;;;;;;;4.57;3.73;;;19.30;99.90;;;;;;5006002;28;20469;-71
2021/08/16 09:26:25;;;;;;;11.70;4.20;;;19.40;99.90;;;;;;5008989;28;20457;-71
2021/08/16 09:28:54;;;;;;;2.00;1.70;;;19.60;99.90;;;;;;5010103;28;20485;-71
2021/08/16 09:31:23;;;;;;;16.13;4.10;;;19.50;99.90;;;;;;5009407;28;20555;-71
2021/08/16 09:34:00;;;;;;;7.63;3.80;;;19.60;99.90;;;;;;5003752;28;20454;-72
2021/08/16 09:36:35;;;;;;;10.47;4.60;;;19.70;99.90;;;;;;5008947;28;20528;-70
2021/08/16 09:39:03;;;;;;;4.70;3.40;;;19.70;99.90;;;;;;5005327;28;21107;-70
2021/08/16 09:41:30;;;;;;;5.40;3.70;;;19.50;99.90;;;;;;5003643;28;20729;-68
2021/08/16 09:44:10;;;;;;;3.87;3.50;;;19.50;99.90;;;;;;5005359;28;20544;-69
2021/08/16 09:46:38;;;;;;;9.20;3.77;;;19.30;99.90;;;;;;5006700;28;20465;-70
2021/08/16 09:49:05;;;;;;;6.07;3.87;;;19.10;99.90;;;;;;5009020;28;20442;-70
2021/08/16 09:51:33;;;;;;;7.77;5.30;;;19.20;99.90;;;;;;5008742;28;20744;-68
2021/08/16 09:54:01;;;;;;;9.33;4.23;;;18.90;99.90;;;;;;5005582;28;20485;-70
2021/08/16 09:56:29;;;;;;;6.33;4.03;;;18.80;99.90;;;;;;5007075;28;20982;-70
2021/08/16 09:58:57;;;;;;;8.47;4.10;;;18.70;99.90;;;;;;5008684;28;20539;-69
2021/08/16 10:01:25;;;;;;;11.03;3.90;;;18.60;99.90;;;;;;5002361;28;20970;-69
2021/08/16 10:03:52;;;;;;;5.17;3.57;;;18.70;99.90;;;;;;5006756;28;20547;-70
2021/08/16 10:06:20;;;;;;;5.47;4.13;;;18.90;99.90;;;;;;5008524;28;20484;-69
2021/08/16 10:08:50;;;;;;;7.23;3.43;;;19.00;99.90;;;;;;5008119;28;20926;-69
2021/08/16 10:11:18;;;;;;;3.50;2.90;;;18.80;99.90;;;;;;5008434;28;20465;-72
2021/08/16 10:13:50;;;;;;;5.97;3.77;;;18.70;99.90;;;;;;5006028;28;20660;-73
2021/08/16 10:16:21;;;;;;;9.23;4.20;;;18.70;99.90;;;;;;5009088;28;20446;-70
2021/08/16 10:18:54;;;;;;;9.60;2.90;;;18.80;99.90;;;;;;5004827;28;20532;-73
2021/08/16 10:21:23;;;;;;;5.53;3.93;;;18.90;99.90;;;;;;4997226;28;20592;-71
2021/08/16 10:23:52;;;;;;;4.87;3.87;;;18.80;99.90;;;;;;5007409;28;20512;-71
2021/08/16 10:26:29;;;;;;;7.47;3.37;;;18.70;99.90;;;;;;5007215;28;20802;-72
2021/08/16 10:28:58;;;;;;;10.73;4.33;;;18.60;99.90;;;;;;5013616;28;20586;-70
2021/08/16 10:31:27;;;;;;;7.27;4.57;;;18.40;99.90;;;;;;5010067;28;20473;-71
2021/08/16 10:33:57;;;;;;;8.20;4.80;;;18.60;99.90;;;;;;5009773;28;21037;-72
2021/08/16 10:36:24;;;;;;;8.33;3.93;;;18.50;99.90;;;;;;5004354;28;20465;-71
2021/08/16 10:38:53;;;;;;;4.93;2.23;;;18.30;99.90;;;;;;5005892;28;20540;-70
2021/08/16 10:41:25;;;;;;;3.13;1.60;;;18.10;99.90;;;;;;4997332;28;20564;-70
2021/08/16 10:43:53;;;;;;;5.10;2.40;;;18.10;99.90;;;;;;5004758;28;20548;-72
2021/08/16 10:46:21;;;;;;;2.00;1.80;;;18.00;99.90;;;;;;4993029;28;20877;-68
2021/08/16 10:49:01;;;;;;;2.00;1.47;;;17.90;99.90;;;;;;5004387;28;20484;-69
2021/08/16 10:51:39;;;;;;;2.70;1.27;;;18.00;99.90;;;;;;5008538;28;20604;-69
2021/08/16 10:54:06;;;;;;;2.90;1.80;;;18.00;99.90;;;;;;5006045;28;21005;-69
2021/08/16 10:56:33;;;;;;;5.47;1.90;;;17.90;99.90;;;;;;5001773;28;20512;-70
2021/08/16 10:59:01;;;;;;;3.90;2.10;;;17.80;99.90;;;;;;5007609;28;20445;-73
2021/08/16 11:01:30;;;;;;;2.83;2.23;;;17.80;99.90;;;;;;5008016;28;20552;-69
2021/08/16 11:03:58;;;;;;;4.93;2.33;;;17.80;99.90;;;;;;5002912;28;20540;-71
2021/08/16 11:06:27;;;;;;;2.53;1.77;;;17.70;99.90;;;;;;5008153;28;20450;-70
2021/08/16 11:08:58;;;;;;;6.63;2.43;;;17.50;99.90;;;;;;5007397;28;20489;-69
2021/08/16 11:11:26;;;;;;;7.70;2.70;;;17.50;99.90;;;;;;5005074;28;20457;-71
2021/08/16 11:14:07;;;;;;;2.70;2.13;;;17.50;99.90;;;;;;5008012;28;20804;-68
2021/08/16 11:16:34;;;;;;;4.57;1.80;;;17.60;99.90;;;;;;5003884;28;20544;-73
2021/08/16 11:19:01;;;;;;;4.40;1.57;;;17.70;99.90;;;;;;5010337;28;20483;-67
2021/08/16 11:21:30;;;;;;;4.33;2.17;;;17.60;99.90;;;;;;5007779;28;20551;-68
2021/08/16 11:23:58;;;;;;;2.37;1.87;;;17.90;99.90;;;;;;5006074;28;20465;-69
2021/08/16 11:26:26;;;;;;;4.80;2.37;;;18.00;99.90;;;;;;5005548;28;20461;-70
2021/08/16 11:29:03;;;;;;;4.10;2.00;;;18.30;99.90;;;;;;5007694;28;21092;-70
2021/08/16 11:31:31;;;;;;;5.40;2.73;;;18.50;99.90;;;;;;5010386;28;20551;-68
2021/08/16 11:34:05;;;;;;;6.57;3.77;;;18.50;99.90;;;;;;5009392;28;20461;-70
2021/08/16 11:36:36;;;;;;;2.50;2.30;;;18.50;99.90;;;;;;4999000;28;20453;-69
2021/08/16 11:39:05;;;;;;;5.20;2.23;;;18.20;99.90;;;;;;4998649;28;20878;-68
2021/08/16 11:41:34;;;;;;;4.67;2.47;;;18.20;99.90;;;;;;5005125;28;20596;-69
2021/08/16 11:44:15;;;;;;;6.23;2.73;;;18.20;99.90;;;;;;5001662;28;20465;-69
2021/08/16 11:46:42;;;;;;;4.90;2.87;;;18.30;99.90;;;;;;5012293;28;20449;-70
2021/08/16 11:49:11;;;;;;;12.33;9.10;;;18.20;99.90;;;;;;5003782;28;20946;-70
2021/08/16 11:51:42;;;;;;;5.47;2.70;;;18.10;99.90;;;;;;5012030;28;20826;-70
2021/08/16 11:54:10;;;;;;;6.13;2.67;;;18.10;99.90;;;;;;5002729;28;20511;-68
2021/08/16 11:56:50;;;;;;;4.73;3.00;;;17.80;99.90;;;;;;5000598;28;20453;-69
2021/08/16 11:59:17;;;;;;;7.17;2.50;;;17.70;99.90;;;;;;5003801;28;20501;-71
2021/08/16 12:01:44;;;;;;;6.30;4.00;;;17.90;99.90;;;;;;5008773;28;20453;-69
2021/08/16 12:04:12;;;;;;;5.23;4.43;;;17.90;99.90;;;;;;5008639;28;20454;-71
2021/08/16 12:06:41;;;;;;;7.93;2.20;;;18.10;99.90;;;;;;5007953;28;20473;-68
2021/08/16 12:09:09;;;;;;;3.60;2.83;;;18.20;99.90;;;;;;4997073;28;20486;-68
2021/08/16 12:11:37;;;;;;;2.93;2.20;;;18.30;99.90;;;;;;5002924;28;20888;-69
2021/08/16 12:14:05;;;;;;;5.87;3.00;;;18.20;99.90;;;;;;5002389;28;21008;-69
2021/08/16 12:16:33;;;;;;;4.23;3.10;;;18.20;99.90;;;;;;4998610;28;20944;-70
2021/08/16 12:19:00;;;;;;;5.43;2.83;;;18.30;99.90;;;;;;5000958;28;20438;-69
2021/08/16 12:21:28;;;;;;;5.23;3.50;;;18.20;99.90;;;;;;4999537;28;20505;-70
2021/08/16 12:23:58;;;;;;;4.10;3.03;;;18.40;99.90;;;;;;4997638;28;20479;-68
2021/08/16 12:26:30;;;;;;;5.77;3.80;;;18.20;99.90;;;;;;4997542;28;20466;-71
2021/08/16 12:28:57;;;;;;;3.73;2.77;;;18.20;99.90;;;;;;4998764;28;20580;-71
2021/08/16 12:31:27;;;;;;;4.03;3.37;;;18.10;99.90;;;;;;4998633;28;20481;-70
2021/08/16 12:33:59;;;;;;;5.77;4.17;;;18.20;99.90;;;;;;5001519;28;20457;-70
2021/08/16 12:36:29;;;;;;;6.23;3.60;;;18.30;99.90;;;;;;5000306;28;20469;-68
2021/08/16 12:39:00;;;;;;;6.93;3.13;;;18.20;99.90;;;;;;4998263;28;20492;-70
2021/08/16 12:41:29;;;;;;;5.40;2.90;;;18.20;99.90;;;;;;5003196;28;20465;-69
2021/08/16 12:43:56;;;;;;;4.03;2.93;;;18.30;99.90;;;;;;4994796;28;20493;-68
2021/08/16 12:46:34;;;;;;;6.90;4.10;;;18.60;99.90;;;;;;5000954;28;20541;-70
2021/08/16 12:49:02;;;;;;;4.67;4.27;;;18.60;99.90;;;;;;4998842;28;20488;-69